createdAt,value
2022-08-17T00:00:34.851Z,52.50
2022-08-17T00:03:24.182Z,52.80
2022-08-17T00:06:00.238Z,53.00
2022-08-17T00:08:34.974Z,53.20
2022-08-17T00:11:07.167Z,53.30
2022-08-17T00:13:39.027Z,53.40
2022-08-17T00:16:10.567Z,52.80
2022-08-17T00:19:02.200Z,51.00
2022-08-17T00:22:31.003Z,50.60
2022-08-17T00:24:18.371Z,51.10
2022-08-17T00:26:47.455Z,51.70
2022-08-17T00:29:20.033Z,52.30
2022-08-17T00:31:48.769Z,52.70
2022-08-17T00:34:17.190Z,52.80
2022-08-17T00:36:45.534Z,52.60
2022-08-17T00:39:13.622Z,51.10
2022-08-17T00:41:42.533Z,50.00
2022-08-17T00:44:12.610Z,50.20
2022-08-17T00:46:43.525Z,50.90
2022-08-17T00:49:13.356Z,51.50
2022-08-17T00:51:47.921Z,52.00
2022-08-17T00:54:19.216Z,52.60
2022-08-17T00:56:51.679Z,52.60
2022-08-17T00:59:24.012Z,51.00
2022-08-17T01:01:53.447Z,50.80
2022-08-17T01:04:24.855Z,51.30
2022-08-17T01:06:53.740Z,52.00
2022-08-17T01:09:22.006Z,52.70
2022-08-17T01:11:52.528Z,53.10
2022-08-17T01:14:25.362Z,53.50
2022-08-17T01:16:56.240Z,52.20
2022-08-17T01:19:29.246Z,50.70
2022-08-17T01:22:12.321Z,50.80
2022-08-17T01:24:44.406Z,51.40
2022-08-17T01:27:15.341Z,52.00
2022-08-17T01:29:51.642Z,52.00
2022-08-17T01:32:20.454Z,50.50
2022-08-17T01:34:51.055Z,49.40
2022-08-17T01:37:21.318Z,49.90
2022-08-17T01:39:55.246Z,50.60
2022-08-17T01:42:26.556Z,51.20
2022-08-17T01:44:58.192Z,50.00
2022-08-17T01:47:29.861Z,48.40
2022-08-17T01:49:59.309Z,48.70
2022-08-17T01:52:27.306Z,49.20
2022-08-17T01:54:55.937Z,49.80
2022-08-17T01:57:23.756Z,49.90
2022-08-17T01:59:51.627Z,48.40
2022-08-17T02:02:31.163Z,47.60
2022-08-17T02:05:00.395Z,48.20
2022-08-17T02:07:29.193Z,48.90
2022-08-17T02:09:57.331Z,49.70
2022-08-17T02:12:39.523Z,49.30
2022-08-17T02:15:12.841Z,48.20
2022-08-17T02:17:41.435Z,48.50
2022-08-17T02:20:10.541Z,49.10
2022-08-17T02:22:43.574Z,49.90
2022-08-17T02:25:16.490Z,49.30
2022-08-17T02:27:44.741Z,48.00
2022-08-17T02:30:50.153Z,48.10
2022-08-17T02:33:06.384Z,48.80
2022-08-17T02:35:39.496Z,49.50
2022-08-17T02:38:08.351Z,49.30
2022-08-17T02:40:37.901Z,47.90
2022-08-17T02:43:06.052Z,47.60
2022-08-17T02:45:34.388Z,48.10
2022-08-17T02:48:02.823Z,48.80
2022-08-17T02:50:30.831Z,49.50
2022-08-17T02:53:01.806Z,49.20
2022-08-17T02:55:34.625Z,48.10
2022-08-17T02:58:04.110Z,47.90
2022-08-17T03:00:36.162Z,48.40
2022-08-17T03:03:06.600Z,48.70
2022-08-17T03:05:37.194Z,49.20
2022-08-17T03:08:06.835Z,49.50
2022-08-17T03:10:39.871Z,49.90
2022-08-17T03:13:07.915Z,49.60
2022-08-17T03:15:36.510Z,48.00
2022-08-17T03:18:08.841Z,47.30
2022-08-17T03:20:47.591Z,47.70
2022-08-17T03:23:15.510Z,48.20
2022-08-17T03:25:46.776Z,48.90
2022-08-17T03:28:14.620Z,48.50
2022-08-17T03:30:42.730Z,47.50
2022-08-17T03:33:11.235Z,47.10
2022-08-17T03:35:41.261Z,47.50
2022-08-17T03:38:11.486Z,48.00
2022-08-17T03:40:56.997Z,47.90
2022-08-17T03:43:33.438Z,46.50
2022-08-17T03:46:28.201Z,45.60
2022-08-17T03:49:26.433Z,45.90
2022-08-17T03:52:14.657Z,46.60
2022-08-17T03:55:03.059Z,46.40
2022-08-17T03:57:32.334Z,45.00
2022-08-17T04:00:00.215Z,45.30
2022-08-17T04:02:31.656Z,45.10
2022-08-17T04:05:00.560Z,45.60
2022-08-17T04:07:30.531Z,45.70
2022-08-17T04:09:59.856Z,44.60
2022-08-17T04:12:32.010Z,44.00
2022-08-17T04:15:00.370Z,44.40
2022-08-17T04:17:29.961Z,44.80
2022-08-17T04:19:58.117Z,45.20
2022-08-17T04:22:30.386Z,44.40
2022-08-17T04:25:22.415Z,44.40
2022-08-17T04:27:50.412Z,44.90
2022-08-17T04:30:18.295Z,45.50
2022-08-17T04:33:04.632Z,46.20
2022-08-17T04:35:48.221Z,46.80
2022-08-17T04:38:19.935Z,47.40
2022-08-17T04:41:21.034Z,47.90
2022-08-17T04:43:50.711Z,48.10
2022-08-17T04:46:20.620Z,47.50
2022-08-17T04:48:54.754Z,48.60
2022-08-17T04:51:29.807Z,48.10
2022-08-17T04:54:08.642Z,48.30
2022-08-17T04:56:37.243Z,48.30
2022-08-17T04:59:09.429Z,48.60
2022-08-17T05:01:39.960Z,49.50
2022-08-17T05:04:20.770Z,48.40
2022-08-17T05:06:59.112Z,47.30
2022-08-17T05:09:28.660Z,48.10
2022-08-17T05:11:56.737Z,48.80
2022-08-17T05:14:27.274Z,49.30
2022-08-17T05:17:07.401Z,49.30
2022-08-17T05:19:39.445Z,48.70
2022-08-17T05:22:07.546Z,48.70
2022-08-17T05:24:39.864Z,46.80
2022-08-17T05:27:23.615Z,45.80
2022-08-17T05:29:51.591Z,46.10
2022-08-17T05:32:39.362Z,46.60
2022-08-17T05:35:09.085Z,46.80
2022-08-17T05:37:37.113Z,47.00
2022-08-17T05:40:05.972Z,47.60
2022-08-17T05:42:34.018Z,48.50
2022-08-17T05:45:02.092Z,48.50
2022-08-17T05:47:31.661Z,47.70
2022-08-17T05:50:01.412Z,48.20
2022-08-17T05:52:55.092Z,48.20
2022-08-17T05:56:06.472Z,48.10
2022-08-17T05:59:22.174Z,48.50
2022-08-17T06:02:31.802Z,48.30
2022-08-17T06:05:27.102Z,48.50
2022-08-17T06:08:10.458Z,48.10
2022-08-17T06:10:56.790Z,46.60
2022-08-17T06:13:55.809Z,47.50
2022-08-17T06:16:34.175Z,46.30
2022-08-17T06:19:14.621Z,47.00
2022-08-17T06:21:46.818Z,47.40
2022-08-17T06:24:38.590Z,46.90
2022-08-17T06:27:32.392Z,47.30
2022-08-17T06:30:12.650Z,47.60
2022-08-17T06:32:45.732Z,47.20
2022-08-17T06:35:21.073Z,47.00
2022-08-17T06:38:02.392Z,47.50
2022-08-17T06:40:58.038Z,47.90
2022-08-17T06:43:49.138Z,48.00
2022-08-17T06:46:21.301Z,48.50
2022-08-17T06:49:20.329Z,49.30
2022-08-17T06:51:54.625Z,49.00
2022-08-17T06:54:42.094Z,49.00
2022-08-17T06:57:22.635Z,49.00
2022-08-17T06:59:56.757Z,49.00
2022-08-17T07:02:52.729Z,48.70
2022-08-17T07:05:45.777Z,48.80
2022-08-17T07:08:35.491Z,49.00
2022-08-17T07:11:15.400Z,49.40
2022-08-17T07:14:18.777Z,49.40
2022-08-17T07:16:51.160Z,49.40
2022-08-17T07:19:23.352Z,49.30
2022-08-17T07:22:15.877Z,49.60
2022-08-17T07:24:45.502Z,49.80
2022-08-17T07:27:22.979Z,50.20
2022-08-17T07:30:10.621Z,50.50
2022-08-17T07:32:48.259Z,50.80
2022-08-17T07:35:44.323Z,50.80
2022-08-17T07:38:25.506Z,50.50
2022-08-17T07:40:59.352Z,50.50
2022-08-17T07:43:38.335Z,50.70
2022-08-17T07:46:41.347Z,50.50
2022-08-17T07:49:14.772Z,50.00
2022-08-17T07:51:46.392Z,50.00
2022-08-17T07:54:20.137Z,49.40
2022-08-17T07:56:58.166Z,49.70
2022-08-17T07:59:29.412Z,49.70
2022-08-17T08:02:06.686Z,49.30
2022-08-17T08:05:00.590Z,49.30
2022-08-17T08:07:58.988Z,49.50
2022-08-17T08:10:39.715Z,49.70
2022-08-17T08:13:20.993Z,49.60
2022-08-17T08:15:54.129Z,49.70
2022-08-17T08:18:38.663Z,49.70
2022-08-17T08:21:51.803Z,49.60
2022-08-17T08:24:57.045Z,49.60
2022-08-17T08:27:30.733Z,48.90
2022-08-17T08:30:01.479Z,49.20
2022-08-17T08:32:51.891Z,48.90
2022-08-17T08:36:13.348Z,48.90
2022-08-17T08:39:32.152Z,49.00
2022-08-17T08:42:22.870Z,48.40
2022-08-17T08:45:20.723Z,48.00
2022-08-17T08:47:54.600Z,47.90
2022-08-17T08:50:48.994Z,47.80
2022-08-17T08:53:24.005Z,48.70
2022-08-17T08:56:27.113Z,48.90
2022-08-17T08:59:30.266Z,48.50
2022-08-17T09:02:06.916Z,48.50
2022-08-17T09:05:12.760Z,48.20
2022-08-17T09:07:42.581Z,47.90
2022-08-17T09:10:50.071Z,48.00
2022-08-17T09:13:39.549Z,47.90
2022-08-17T09:16:23.591Z,48.30
2022-08-17T09:19:00.203Z,48.10
2022-08-17T09:21:57.037Z,47.60
2022-08-17T09:24:47.390Z,47.80
2022-08-17T09:27:21.949Z,47.80
2022-08-17T09:29:58.069Z,47.50
2022-08-17T09:32:35.038Z,47.40
2022-08-17T09:35:12.480Z,47.70
2022-08-17T09:37:49.970Z,47.40
2022-08-17T09:40:23.485Z,47.10
2022-08-17T09:43:04.706Z,47.10
2022-08-17T09:45:50.945Z,47.00
2022-08-17T09:48:44.881Z,47.80
2022-08-17T09:51:34.168Z,47.80
2022-08-17T09:54:34.733Z,48.00
2022-08-17T09:57:28.426Z,48.10
2022-08-17T10:00:08.494Z,48.00
2022-08-17T10:03:12.180Z,47.60
2022-08-17T10:05:56.426Z,47.90
2022-08-17T10:08:55.127Z,47.40
2022-08-17T10:12:11.825Z,46.60
2022-08-17T10:15:08.128Z,47.20
2022-08-17T10:17:46.731Z,47.20
2022-08-17T10:20:33.755Z,47.60
2022-08-17T10:23:34.490Z,46.70
2022-08-17T10:26:17.724Z,46.50
2022-08-17T10:28:51.084Z,45.80
2022-08-17T10:31:36.289Z,45.50
2022-08-17T10:34:43.272Z,45.40
2022-08-17T10:37:20.118Z,45.30
2022-08-17T10:40:26.485Z,44.70
2022-08-17T10:43:31.712Z,44.20
2022-08-17T10:46:30.974Z,43.40
2022-08-17T10:49:34.773Z,42.90
2022-08-17T10:52:37.157Z,43.00
2022-08-17T10:55:06.519Z,42.00
2022-08-17T10:57:38.612Z,41.90
2022-08-17T11:00:41.273Z,41.00
2022-08-17T11:03:25.041Z,40.80
2022-08-17T11:06:19.060Z,40.70
2022-08-17T11:09:15.454Z,41.20
2022-08-17T11:12:07.952Z,41.00
2022-08-17T11:14:48.710Z,40.50
2022-08-17T11:17:36.454Z,39.40
2022-08-17T11:20:30.981Z,38.90
2022-08-17T11:23:20.533Z,38.00
2022-08-17T11:25:59.321Z,37.60
2022-08-17T11:28:37.503Z,37.80
2022-08-17T11:31:38.078Z,37.00
2022-08-17T11:34:21.867Z,37.10
2022-08-17T11:37:11.731Z,36.10
2022-08-17T11:40:15.691Z,36.10
2022-08-17T11:43:21.668Z,35.90
2022-08-17T11:45:59.929Z,36.10
2022-08-17T11:49:07.583Z,35.80
2022-08-17T11:51:56.714Z,35.50
2022-08-17T11:54:41.610Z,35.60
2022-08-17T11:57:27.846Z,35.40
2022-08-17T12:00:11.905Z,35.20
2022-08-17T12:02:48.224Z,35.50
2022-08-17T12:05:23.851Z,35.40
2022-08-17T12:07:57.633Z,35.50
2022-08-17T12:10:32.472Z,35.80
2022-08-17T12:13:07.083Z,36.00
2022-08-17T12:15:45.751Z,35.80
2022-08-17T12:18:37.943Z,36.00
2022-08-17T12:21:32.369Z,35.80
2022-08-17T12:24:21.056Z,35.90
2022-08-17T12:26:55.798Z,35.90
2022-08-17T12:29:35.207Z,35.60
2022-08-17T12:32:13.483Z,36.00
2022-08-17T12:34:43.771Z,35.90
2022-08-17T12:37:21.096Z,36.20
2022-08-17T12:40:18.816Z,35.90
2022-08-17T12:43:09.075Z,35.80
2022-08-17T12:45:40.855Z,36.30
2022-08-17T12:48:15.118Z,35.90
2022-08-17T12:50:45.499Z,36.30
2022-08-17T12:53:27.783Z,36.00
2022-08-17T12:55:57.941Z,36.10
2022-08-17T12:58:35.569Z,37.30
2022-08-17T13:01:11.825Z,36.50
2022-08-17T13:03:49.927Z,37.00
2022-08-17T13:06:35.602Z,36.60
2022-08-17T13:09:18.834Z,36.70
2022-08-17T13:12:01.752Z,37.40
2022-08-17T13:14:30.302Z,37.50
2022-08-17T13:17:08.339Z,37.20
2022-08-17T13:19:50.253Z,37.80
2022-08-17T13:22:25.872Z,37.20
2022-08-17T13:24:58.120Z,37.40
2022-08-17T13:27:30.837Z,37.10
2022-08-17T13:30:07.976Z,37.00
2022-08-17T13:32:44.034Z,37.00
2022-08-17T13:35:41.102Z,37.30
2022-08-17T13:38:46.031Z,37.40
2022-08-17T13:41:35.208Z,37.40
2022-08-17T13:44:22.144Z,37.40
2022-08-17T13:46:57.066Z,36.80
2022-08-17T13:49:26.662Z,37.00
2022-08-17T13:52:35.258Z,36.80
2022-08-17T13:55:19.279Z,37.00
2022-08-17T13:58:06.522Z,37.10
2022-08-17T14:00:37.191Z,36.60
2022-08-17T14:03:06.217Z,37.40
2022-08-17T14:05:38.168Z,37.50
2022-08-17T14:08:07.202Z,37.70
2022-08-17T14:10:36.867Z,38.20
2022-08-17T14:13:05.971Z,38.40
2022-08-17T14:15:54.830Z,37.90
2022-08-17T14:18:55.518Z,38.60
2022-08-17T14:21:11.212Z,37.70
2022-08-17T14:23:39.710Z,36.40
2022-08-17T14:26:09.310Z,36.70
2022-08-17T14:28:39.288Z,37.20
2022-08-17T14:31:22.975Z,37.70
2022-08-17T14:33:52.596Z,37.90
2022-08-17T14:36:20.701Z,38.10
2022-08-17T14:38:48.574Z,38.40
2022-08-17T14:41:21.470Z,37.90
2022-08-17T14:43:53.453Z,38.00
2022-08-17T14:46:23.448Z,38.30
2022-08-17T14:48:57.409Z,38.30
2022-08-17T14:51:28.132Z,38.60
2022-08-17T14:53:57.807Z,38.60
2022-08-17T14:56:26.466Z,38.50
2022-08-17T14:58:54.784Z,38.80
2022-08-17T15:01:24.999Z,38.70
2022-08-17T15:03:54.437Z,38.90
2022-08-17T15:06:24.178Z,39.00
2022-08-17T15:08:53.982Z,38.80
2022-08-17T15:11:22.158Z,38.80
2022-08-17T15:13:52.976Z,38.90
2022-08-17T15:16:22.038Z,38.50
2022-08-17T15:18:50.572Z,38.60
2022-08-17T15:21:19.129Z,38.60
2022-08-17T15:23:47.872Z,38.60
2022-08-17T15:26:16.868Z,39.00
2022-08-17T15:28:44.929Z,38.90
2022-08-17T15:31:32.184Z,39.90
2022-08-17T15:34:01.758Z,39.90
2022-08-17T15:36:29.738Z,40.70
2022-08-17T15:39:01.046Z,41.00
2022-08-17T15:41:29.011Z,41.30
2022-08-17T15:43:57.280Z,41.50
2022-08-17T15:46:26.605Z,41.60
2022-08-17T15:48:59.307Z,41.90
2022-08-17T15:51:34.417Z,42.40
2022-08-17T15:54:17.079Z,42.50
2022-08-17T15:56:48.323Z,42.80
2022-08-17T15:59:16.521Z,42.70
2022-08-17T16:03:14.821Z,42.60
2022-08-17T16:04:35.572Z,42.70
2022-08-17T16:07:07.197Z,42.50
2022-08-17T16:09:38.990Z,42.60
2022-08-17T16:12:19.723Z,42.40
2022-08-17T16:14:50.015Z,42.40
2022-08-17T16:17:39.573Z,42.50
2022-08-17T16:20:06.998Z,42.40
2022-08-17T16:22:41.093Z,42.40
2022-08-17T16:25:17.018Z,42.40
2022-08-17T16:27:45.933Z,42.00
2022-08-17T16:30:17.565Z,42.30
2022-08-17T16:32:46.915Z,42.10
2022-08-17T16:35:18.447Z,42.00
2022-08-17T16:37:47.218Z,42.00
2022-08-17T16:40:17.021Z,42.00
2022-08-17T16:42:48.988Z,41.80
2022-08-17T16:45:24.437Z,41.80
2022-08-17T16:47:52.760Z,41.80
2022-08-17T16:50:23.423Z,41.90
2022-08-17T16:52:51.517Z,41.60
2022-08-17T16:55:22.689Z,41.90
2022-08-17T16:57:51.042Z,42.00
2022-08-17T17:00:19.838Z,42.00
2022-08-17T17:02:50.218Z,41.90
2022-08-17T17:05:58.184Z,41.80
2022-08-17T17:08:50.122Z,41.60
2022-08-17T17:11:47.462Z,41.60
2022-08-17T17:14:20.747Z,41.70
2022-08-17T17:16:53.927Z,41.70
2022-08-17T17:19:34.252Z,41.80
2022-08-17T17:22:27.639Z,41.80
2022-08-17T17:25:26.990Z,41.90
2022-08-17T17:28:07.154Z,42.20
2022-08-17T17:30:57.166Z,43.30
2022-08-17T17:34:00.858Z,44.40
2022-08-17T17:36:43.590Z,46.00
2022-08-17T17:39:19.407Z,47.20
2022-08-17T17:41:55.189Z,47.90
2022-08-17T17:44:30.841Z,48.40
2022-08-17T17:47:01.991Z,48.60
2022-08-17T17:49:37.907Z,48.80
2022-08-17T17:52:18.942Z,49.00
2022-08-17T17:54:55.078Z,48.60
2022-08-17T17:57:47.511Z,48.60
2022-08-17T18:00:26.759Z,48.10
2022-08-17T18:03:03.239Z,47.30
2022-08-17T18:05:47.001Z,46.80
2022-08-17T18:08:35.071Z,46.70
2022-08-17T18:11:25.331Z,46.90
2022-08-17T18:14:14.857Z,46.30
2022-08-17T18:16:45.060Z,46.00
2022-08-17T18:19:25.472Z,45.60
2022-08-17T18:22:07.467Z,45.70
2022-08-17T18:24:44.873Z,45.60
2022-08-17T18:27:39.508Z,45.80
2022-08-17T18:30:13.609Z,45.50
2022-08-17T18:32:46.802Z,45.80
2022-08-17T18:35:15.099Z,45.70
2022-08-17T18:37:48.044Z,45.60
2022-08-17T18:40:20.006Z,45.70
2022-08-17T18:43:01.154Z,45.50
2022-08-17T18:45:49.448Z,45.50
2022-08-17T18:48:33.988Z,45.50
2022-08-17T18:51:40.733Z,45.60
2022-08-17T18:54:23.426Z,45.30
2022-08-17T18:57:02.494Z,45.70
2022-08-17T18:59:38.678Z,45.80
2022-08-17T19:05:29.179Z,46.50
2022-08-17T19:08:15.912Z,46.70
2022-08-17T19:10:47.344Z,47.50
2022-08-17T19:13:29.029Z,48.20
2022-08-17T19:16:12.270Z,48.30
2022-08-17T19:18:53.011Z,48.80
2022-08-17T19:21:39.360Z,49.30
2022-08-17T19:24:10.692Z,49.40
2022-08-17T19:26:54.854Z,49.60
2022-08-17T19:30:02.777Z,50.00
2022-08-17T19:32:36.150Z,49.80
2022-08-17T19:35:07.613Z,50.20
2022-08-17T19:38:05.962Z,50.30
2022-08-17T19:41:01.091Z,50.30
2022-08-17T19:43:48.650Z,50.50
2022-08-17T19:46:35.688Z,50.50
2022-08-17T19:49:33.537Z,50.60
2022-08-17T19:53:08.933Z,50.50
2022-08-17T19:56:07.589Z,50.60
2022-08-17T19:59:02.641Z,51.20
2022-08-17T20:01:34.517Z,51.40
2022-08-17T20:04:32.758Z,51.60
2022-08-17T20:07:06.906Z,51.70
2022-08-17T20:09:49.907Z,52.00
2022-08-17T20:12:23.886Z,52.60
2022-08-17T20:14:57.877Z,52.60
2022-08-17T20:17:30.966Z,52.60
2022-08-17T20:20:24.098Z,52.90
2022-08-17T20:23:07.721Z,53.10
2022-08-17T20:25:47.605Z,53.70
2022-08-17T20:28:28.552Z,53.70
2022-08-17T20:30:57.782Z,53.80
2022-08-17T20:33:44.592Z,53.80
2022-08-17T20:36:21.221Z,53.90
2022-08-17T20:38:58.924Z,53.90
2022-08-17T20:41:30.654Z,53.70
2022-08-17T20:43:59.398Z,53.70
2022-08-17T20:47:18.013Z,53.60
2022-08-17T20:49:49.607Z,53.70
2022-08-17T20:52:54.799Z,53.50
2022-08-17T20:55:51.852Z,53.70
2022-08-17T20:58:31.172Z,53.70
2022-08-17T21:00:59.395Z,54.00
2022-08-17T21:03:48.036Z,53.70
2022-08-17T21:06:22.353Z,53.80
2022-08-17T21:09:13.588Z,54.00
2022-08-17T21:12:05.687Z,54.30
2022-08-17T21:14:37.871Z,54.00
2022-08-17T21:17:30.910Z,54.50
2022-08-17T21:20:32.571Z,55.20
2022-08-17T21:23:03.856Z,56.10
2022-08-17T21:25:43.919Z,56.50
2022-08-17T21:29:00.379Z,56.70
2022-08-17T21:31:36.585Z,56.90
2022-08-17T21:34:16.855Z,57.10
2022-08-17T21:36:48.604Z,57.10
2022-08-17T21:39:28.366Z,56.90
2022-08-17T21:42:02.213Z,57.10
2022-08-17T21:44:35.044Z,57.10
2022-08-17T21:47:32.765Z,57.10
2022-08-17T21:50:25.421Z,57.00
2022-08-17T21:52:55.022Z,57.20
2022-08-17T21:55:30.052Z,57.40
2022-08-17T21:58:12.224Z,57.50
2022-08-17T22:00:44.944Z,57.40
2022-08-17T22:03:29.149Z,57.40
2022-08-17T22:05:57.162Z,57.40
2022-08-17T22:08:27.249Z,57.30
2022-08-17T22:11:02.923Z,57.20
2022-08-17T22:13:30.965Z,57.30
2022-08-17T22:16:05.875Z,57.20
2022-08-17T22:18:48.193Z,57.60
2022-08-17T22:21:22.552Z,56.90
2022-08-17T22:24:16.463Z,56.60
2022-08-17T22:27:06.609Z,57.10
2022-08-17T22:29:46.846Z,57.60
2022-08-17T22:32:37.891Z,57.20
2022-08-17T22:35:31.754Z,57.30
2022-08-17T22:38:21.705Z,57.30
2022-08-17T22:40:55.212Z,57.00
2022-08-17T22:43:29.120Z,56.90
2022-08-17T22:46:00.603Z,57.30
2022-08-17T22:48:31.573Z,57.70
2022-08-17T22:51:13.992Z,58.20
2022-08-17T22:54:14.033Z,56.90
2022-08-17T22:57:20.148Z,55.70
2022-08-17T22:59:56.372Z,54.40
2022-08-17T23:02:27.354Z,52.70
2022-08-17T23:05:16.997Z,51.40
2022-08-17T23:07:47.146Z,50.50
2022-08-17T23:10:15.816Z,49.60
2022-08-17T23:12:43.876Z,48.90
2022-08-17T23:15:16.600Z,48.60
2022-08-17T23:17:48.114Z,48.20
2022-08-17T23:20:17.828Z,47.90
2022-08-17T23:22:51.157Z,47.80
2022-08-17T23:25:32.948Z,47.60
2022-08-17T23:28:04.185Z,47.50
2022-08-17T23:30:35.632Z,47.40
2022-08-17T23:33:07.988Z,47.70
2022-08-17T23:35:40.013Z,48.70
2022-08-17T23:38:11.086Z,48.50
2022-08-17T23:40:39.998Z,48.30
2022-08-17T23:43:17.604Z,49.60
2022-08-17T23:45:59.981Z,49.80
2022-08-17T23:48:35.794Z,50.00
2022-08-17T23:51:19.531Z,49.90
2022-08-17T23:53:52.802Z,50.10
2022-08-17T23:56:26.204Z,50.00
2022-08-17T23:58:56.273Z,50.50
